Time;durP1;ratioP1;P1;durP2;ratioP2;P2;SDS_P1;SDS_P2;PMS_P1;PMS_P2;Temp;Humidity;BMP_temperature;BMP_pressure;BME280_temperature;BME280_humidity;BME280_pressure;Samples;Min_cycle;Max_cycle;Signal;HPM_P1;HPM_P2
2024/01/31 00:02:06;;;;;;;1.90;0.00;;;4.90;99.90;;;;;;4963908;28;20045;-83
2024/01/31 00:04:32;;;;;;;2.80;0.00;;;;;;;;;;4962656;28;20399;-85
2024/01/31 00:06:59;;;;;;;1.92;0.00;;;;;;;;;;4963273;28;20027;-83
2024/01/31 00:09:24;;;;;;;3.28;0.00;;;5.00;99.90;;;;;;4963509;28;20034;-83
2024/01/31 00:11:50;;;;;;;3.65;0.00;;;4.90;99.90;;;;;;4960951;28;20383;-82
2024/01/31 00:14:18;;;;;;;3.63;0.73;;;5.10;99.90;;;;;;4961029;28;20031;-86
2024/01/31 00:16:44;;;;;;;3.70;0.00;;;5.10;99.90;;;;;;4961990;28;20047;-83
2024/01/31 00:19:10;;;;;;;4.40;0.20;;;5.10;99.90;;;;;;4962541;28;20429;-82
2024/01/31 00:21:36;;;;;;;2.40;0.00;;;5.10;99.90;;;;;;4960562;28;20027;-82
2024/01/31 00:24:01;;;;;;;0.73;0.00;;;5.10;99.90;;;;;;4960354;28;20027;-83
2024/01/31 00:26:27;;;;;;;6.28;0.52;;;5.20;99.90;;;;;;4959837;28;20163;-82
2024/01/31 00:28:53;;;;;;;1.02;0.10;;;5.20;99.90;;;;;;4960587;28;20019;-83
2024/01/31 00:31:19;;;;;;;1.05;0.20;;;5.20;99.90;;;;;;4960317;28;20019;-82
2024/01/31 00:33:46;;;;;;;2.88;0.00;;;5.20;99.90;;;;;;4959370;29;20023;-83
2024/01/31 00:36:13;;;;;;;3.75;0.00;;;5.20;99.90;;;;;;4960448;29;20391;-83
2024/01/31 00:38:39;;;;;;;1.67;0.10;;;5.30;99.90;;;;;;4962866;28;20492;-85
2024/01/31 00:41:07;;;;;;;8.10;0.43;;;5.30;99.90;;;;;;4962761;29;20050;-83
2024/01/31 00:43:33;;;;;;;1.85;0.05;;;5.30;99.90;;;;;;4960816;28;20024;-82
2024/01/31 00:45:58;;;;;;;5.20;0.00;;;5.40;99.90;;;;;;4961196;28;20058;-83
2024/01/31 00:48:24;;;;;;;2.05;0.00;;;5.40;99.90;;;;;;4960044;29;20075;-83
2024/01/31 00:50:50;;;;;;;5.78;0.35;;;5.40;99.90;;;;;;4960547;28;20524;-82
2024/01/31 00:53:16;;;;;;;3.60;0.00;;;6.50;99.90;;;;;;4959107;28;20028;-83
2024/01/31 00:55:41;;;;;;;3.10;0.20;;;5.50;99.90;;;;;;4958426;28;20033;-82
2024/01/31 00:58:07;;;;;;;5.70;0.20;;;5.50;99.90;;;;;;4959141;28;20126;-82
2024/01/31 01:00:32;;;;;;;3.97;0.08;;;5.60;99.90;;;;;;4961701;28;20074;-82
2024/01/31 01:02:58;;;;;;;3.83;0.00;;;;;;;;;;4961814;28;20027;-82
2024/01/31 01:05:24;;;;;;;4.30;0.15;;;5.60;99.90;;;;;;4967126;28;20070;-82
2024/01/31 01:07:50;;;;;;;6.70;0.47;;;5.70;99.90;;;;;;4966384;28;20031;-83
2024/01/31 01:10:16;;;;;;;3.35;0.20;;;5.70;99.90;;;;;;4971683;28;20507;-82
2024/01/31 01:12:42;;;;;;;2.75;0.03;;;6.00;99.90;;;;;;4965962;28;20117;-84
2024/01/31 01:15:11;;;;;;;4.45;0.00;;;6.10;99.90;;;;;;4964566;28;20055;-83
2024/01/31 01:17:38;;;;;;;6.65;0.00;;;5.70;99.90;;;;;;4965726;28;20031;-83
2024/01/31 01:20:06;;;;;;;2.78;0.05;;;5.70;99.90;;;;;;4966162;28;20024;-83
2024/01/31 01:22:32;;;;;;;5.65;0.52;;;5.70;99.90;;;;;;4963338;28;20100;-84
2024/01/31 01:24:57;;;;;;;11.35;1.27;;;5.70;99.90;;;;;;4964069;29;20056;-82
2024/01/31 01:27:23;;;;;;;4.10;0.05;;;5.70;99.90;;;;;;4963277;28;20023;-82
2024/01/31 01:29:48;;;;;;;2.88;0.10;;;6.40;99.90;;;;;;4962107;28;20020;-82
2024/01/31 01:32:14;;;;;;;0.70;0.00;;;5.70;99.90;;;;;;4962791;28;20144;-84
2024/01/31 01:34:43;;;;;;;3.45;0.00;;;5.70;99.90;;;;;;4963459;28;20043;-84
2024/01/31 01:37:08;;;;;;;6.95;0.10;;;5.70;99.90;;;;;;4963840;29;20106;-82
2024/01/31 01:39:37;;;;;;;2.33;0.05;;;5.70;99.90;;;;;;4963664;28;20510;-83
2024/01/31 01:42:03;;;;;;;8.52;0.00;;;5.70;99.90;;;;;;4963950;28;20031;-85
2024/01/31 01:44:33;;;;;;;3.53;0.32;;;5.70;99.90;;;;;;4963821;28;20031;-82
2024/01/31 01:47:00;;;;;;;3.78;0.00;;;5.70;99.90;;;;;;4962946;28;20083;-83
2024/01/31 01:49:34;;;;;;;2.65;0.00;;;5.70;99.90;;;;;;4962535;28;20165;-82
2024/01/31 01:52:00;;;;;;;0.40;0.00;;;5.60;99.90;;;;;;4963238;28;20035;-81
2024/01/31 01:54:26;;;;;;;1.92;0.10;;;5.70;99.90;;;;;;4963578;28;20486;-82
2024/01/31 01:56:53;;;;;;;2.63;0.08;;;5.70;99.90;;;;;;4962787;28;20042;-85
2024/01/31 01:59:19;;;;;;;4.50;0.00;;;5.60;99.90;;;;;;4961832;28;20023;-82
2024/01/31 02:01:45;;;;;;;3.15;0.25;;;5.60;99.90;;;;;;4961613;28;20034;-84
2024/01/31 02:04:12;;;;;;;0.52;0.10;;;5.70;99.90;;;;;;4964109;28;20444;-83
2024/01/31 02:06:38;;;;;;;3.47;0.43;;;;;;;;;;4960836;28;20063;-81
2024/01/31 02:09:04;;;;;;;1.63;0.00;;;5.60;99.90;;;;;;4961200;28;20031;-81
2024/01/31 02:11:34;;;;;;;2.45;0.00;;;6.40;99.90;;;;;;4961371;28;20162;-82
2024/01/31 02:14:01;;;;;;;4.72;0.20;;;;;;;;;;4961204;28;20038;-82
2024/01/31 02:16:27;;;;;;;3.75;0.17;;;5.70;99.90;;;;;;4962450;28;20031;-84
2024/01/31 02:18:52;;;;;;;6.72;0.55;;;5.60;99.90;;;;;;4962211;28;20031;-83
2024/01/31 02:21:19;;;;;;;4.70;0.85;;;5.60;99.90;;;;;;4960653;28;20027;-84
2024/01/31 02:23:45;;;;;;;6.25;0.28;;;5.70;99.90;;;;;;4960472;28;20094;-82
2024/01/31 02:26:10;;;;;;;2.42;0.17;;;5.70;99.90;;;;;;4962524;28;20051;-84
2024/01/31 02:28:36;;;;;;;4.32;0.00;;;5.70;99.90;;;;;;4962656;29;20023;-82
2024/01/31 02:31:02;;;;;;;8.85;0.10;;;5.90;99.90;;;;;;4961084;28;20027;-83
2024/01/31 02:33:28;;;;;;;3.38;0.00;;;5.70;99.90;;;;;;4961019;28;20110;-82
2024/01/31 02:35:53;;;;;;;2.47;0.25;;;5.70;99.90;;;;;;4961613;28;20074;-84
2024/01/31 02:38:19;;;;;;;1.40;0.00;;;5.60;99.90;;;;;;4962873;28;20027;-85
2024/01/31 02:40:45;;;;;;;1.75;0.32;;;5.70;99.90;;;;;;4962601;28;20026;-83
2024/01/31 02:43:10;;;;;;;8.00;0.20;;;5.60;99.90;;;;;;4962264;28;20029;-83
2024/01/31 02:45:36;;;;;;;3.72;0.10;;;5.60;99.90;;;;;;4960756;28;20023;-84
2024/01/31 02:48:02;;;;;;;2.97;0.00;;;7.50;99.90;;;;;;4961192;28;20034;-85
2024/01/31 02:50:30;;;;;;;1.08;0.10;;;5.60;99.90;;;;;;4962206;28;20019;-82
2024/01/31 02:52:56;;;;;;;5.78;0.00;;;6.80;99.90;;;;;;4963136;28;20024;-84
2024/01/31 02:55:21;;;;;;;4.82;0.52;;;5.80;99.90;;;;;;4960552;28;20024;-85
2024/01/31 02:57:47;;;;;;;3.33;0.10;;;5.70;99.90;;;;;;4963072;28;20023;-85
2024/01/31 03:00:14;;;;;;;3.08;0.15;;;5.70;99.90;;;;;;4961284;28;20031;-83
2024/01/31 03:02:42;;;;;;;2.13;0.20;;;5.70;99.90;;;;;;4961016;28;20042;-84
2024/01/31 03:05:08;;;;;;;1.92;0.00;;;9.50;99.90;;;;;;4959942;28;20033;-83
2024/01/31 03:07:34;;;;;;;6.68;0.20;;;5.70;99.90;;;;;;4961654;28;20038;-81
2024/01/31 03:09:59;;;;;;;3.80;0.00;;;5.90;99.90;;;;;;4964325;28;20023;-79
2024/01/31 03:12:25;;;;;;;8.82;0.73;;;5.70;99.90;;;;;;4968197;28;20023;-79
2024/01/31 03:14:50;;;;;;;3.15;0.00;;;7.00;99.90;;;;;;4970005;28;20032;-80
2024/01/31 03:17:16;;;;;;;2.35;0.00;;;5.70;99.90;;;;;;4967962;28;20015;-79
2024/01/31 03:19:42;;;;;;;3.80;0.17;;;5.70;99.90;;;;;;4965050;28;20042;-78
2024/01/31 03:22:09;;;;;;;2.40;0.00;;;5.70;99.90;;;;;;4970707;28;20030;-79
2024/01/31 03:24:35;;;;;;;4.15;0.43;;;5.80;99.90;;;;;;4970599;28;20025;-79
2024/01/31 03:27:02;;;;;;;1.70;0.15;;;5.80;99.90;;;;;;4969389;28;20057;-79
2024/01/31 03:29:28;;;;;;;4.55;0.00;;;5.80;99.90;;;;;;4969598;28;20019;-78
2024/01/31 03:31:54;;;;;;;4.50;0.77;;;5.80;99.90;;;;;;4968731;28;20019;-79
2024/01/31 03:34:20;;;;;;;2.55;0.00;;;5.80;99.90;;;;;;4967014;29;20112;-79
2024/01/31 03:36:46;;;;;;;1.35;0.00;;;5.80;99.90;;;;;;4967274;28;20097;-79
2024/01/31 03:39:12;;;;;;;3.88;0.00;;;7.10;99.90;;;;;;4970171;28;20495;-78
2024/01/31 03:41:49;;;;;;;1.80;0.15;;;5.80;99.90;;;;;;4970207;28;20024;-79
2024/01/31 03:44:15;;;;;;;9.52;0.60;;;5.80;99.90;;;;;;4967266;28;20123;-79
2024/01/31 03:46:41;;;;;;;4.78;0.32;;;5.80;99.90;;;;;;4969315;28;20063;-79
2024/01/31 03:49:06;;;;;;;4.78;0.22;;;5.80;99.90;;;;;;4967108;28;20031;-79
2024/01/31 03:51:32;;;;;;;2.22;0.20;;;5.80;99.90;;;;;;4970966;28;20038;-79
2024/01/31 03:53:58;;;;;;;2.75;0.20;;;6.20;99.90;;;;;;4966539;28;20019;-86
2024/01/31 03:56:23;;;;;;;4.00;0.10;;;5.80;99.90;;;;;;4959196;28;20038;-86
2024/01/31 03:58:49;;;;;;;3.28;0.00;;;5.70;99.90;;;;;;4961580;28;20058;-82
2024/01/31 04:01:16;;;;;;;4.63;0.00;;;5.80;99.90;;;;;;4959634;28;20475;-84
2024/01/31 04:03:43;;;;;;;1.08;0.00;;;6.60;99.90;;;;;;4960576;28;20395;-83
2024/01/31 04:06:09;;;;;;;6.72;0.15;;;;;;;;;;4959766;28;20034;-83
2024/01/31 04:08:35;;;;;;;4.38;0.28;;;5.80;99.90;;;;;;4959141;28;20054;-83
2024/01/31 04:11:01;;;;;;;1.10;0.20;;;5.70;99.90;;;;;;4960423;28;20027;-83
2024/01/31 04:13:27;;;;;;;0.47;0.00;;;5.80;99.90;;;;;;4961715;29;20031;-85
2024/01/31 04:15:53;;;;;;;0.13;0.00;;;5.70;99.90;;;;;;4961514;28;20015;-85
2024/01/31 04:18:18;;;;;;;2.97;0.00;;;5.80;99.90;;;;;;4961945;29;20122;-85
2024/01/31 04:20:44;;;;;;;2.83;0.20;;;5.70;99.90;;;;;;4962531;28;20015;-84
2024/01/31 04:23:10;;;;;;;3.53;0.15;;;;;;;;;;4962744;28;20034;-83
2024/01/31 04:25:35;;;;;;;4.90;0.17;;;5.70;99.90;;;;;;4960916;28;20014;-83
2024/01/31 04:28:01;;;;;;;2.30;0.15;;;5.70;99.90;;;;;;4960957;28;20023;-83
2024/01/31 04:30:27;;;;;;;6.28;0.20;;;5.80;99.90;;;;;;4959599;28;20016;-85
2024/01/31 04:32:53;;;;;;;2.20;0.30;;;;;;;;;;4961027;28;20062;-84
2024/01/31 04:35:19;;;;;;;3.08;0.30;;;;;;;;;;4961105;28;20037;-86
2024/01/31 04:37:45;;;;;;;4.10;0.10;;;5.70;99.90;;;;;;4960918;28;20119;-84
2024/01/31 04:40:11;;;;;;;0.98;0.00;;;5.70;99.90;;;;;;4961333;28;20098;-85
2024/01/31 04:42:38;;;;;;;1.67;0.22;;;;;;;;;;4960781;28;20066;-83
2024/01/31 04:45:04;;;;;;;2.35;0.17;;;5.80;99.90;;;;;;4961196;28;20054;-85
2024/01/31 04:47:31;;;;;;;2.38;0.10;;;5.80;99.90;;;;;;4960940;28;20399;-83
2024/01/31 04:49:57;;;;;;;4.25;0.30;;;5.70;99.90;;;;;;4959590;28;20035;-84
2024/01/31 04:52:23;;;;;;;4.75;0.65;;;6.00;99.90;;;;;;4958459;28;20091;-84
2024/01/31 04:54:50;;;;;;;3.10;0.55;;;5.70;99.90;;;;;;4960341;28;20440;-84
2024/01/31 04:57:16;;;;;;;1.95;0.10;;;5.70;99.90;;;;;;4959518;28;20015;-85
2024/01/31 04:59:42;;;;;;;4.18;0.40;;;5.70;99.90;;;;;;4960929;29;20062;-83
2024/01/31 05:02:08;;;;;;;1.63;0.15;;;5.70;99.90;;;;;;4960431;28;20094;-83
2024/01/31 05:04:39;;;;;;;1.45;0.20;;;5.70;99.90;;;;;;4959081;29;20027;-83
2024/01/31 05:07:05;;;;;;;3.22;0.10;;;;;;;;;;4959399;28;20475;-83
2024/01/31 05:09:31;;;;;;;1.77;0.10;;;5.70;99.90;;;;;;4962287;28;20030;-80
2024/01/31 05:11:57;;;;;;;2.92;0.20;;;5.70;99.90;;;;;;4963107;28;20024;-80
2024/01/31 05:14:22;;;;;;;0.95;0.05;;;5.70;99.90;;;;;;4962030;28;20031;-80
2024/01/31 05:16:48;;;;;;;2.45;0.20;;;5.70;99.90;;;;;;4962209;28;20023;-79
2024/01/31 05:19:14;;;;;;;3.45;0.10;;;5.70;99.90;;;;;;4962412;28;20391;-81
2024/01/31 05:21:47;;;;;;;2.97;0.13;;;5.70;99.90;;;;;;4962020;28;20024;-79
2024/01/31 05:24:16;;;;;;;2.38;0.30;;;5.80;99.90;;;;;;4961842;28;20094;-79
2024/01/31 05:26:43;;;;;;;2.58;0.10;;;5.70;99.90;;;;;;4962683;29;20162;-80
2024/01/31 05:29:09;;;;;;;3.70;0.32;;;5.70;99.90;;;;;;4965891;28;20026;-81
2024/01/31 05:31:35;;;;;;;2.45;0.20;;;5.80;99.90;;;;;;4964994;28;20391;-81
2024/01/31 05:34:01;;;;;;;1.13;0.30;;;;;;;;;;4965267;28;20027;-80
2024/01/31 05:36:26;;;;;;;1.13;0.10;;;5.80;99.90;;;;;;4967624;28;20055;-80
2024/01/31 05:38:52;;;;;;;1.05;0.00;;;5.80;99.90;;;;;;4965967;28;20042;-80
2024/01/31 05:41:18;;;;;;;1.67;0.40;;;5.90;99.90;;;;;;4966545;28;20058;-81
2024/01/31 05:43:45;;;;;;;1.45;0.50;;;5.80;99.90;;;;;;4967480;28;20083;-81
2024/01/31 05:46:15;;;;;;;1.70;0.38;;;5.80;99.90;;;;;;4965423;28;20027;-80
2024/01/31 05:48:40;;;;;;;0.82;0.15;;;5.90;99.90;;;;;;4965227;28;20108;-81
2024/01/31 05:51:06;;;;;;;1.25;0.28;;;5.90;99.90;;;;;;4965751;28;20031;-81
2024/01/31 05:53:32;;;;;;;3.10;0.20;;;5.90;99.90;;;;;;4969352;28;20062;-81
2024/01/31 05:55:57;;;;;;;0.25;0.00;;;5.90;99.90;;;;;;4968260;28;20023;-81
2024/01/31 05:58:23;;;;;;;3.33;0.28;;;5.90;99.90;;;;;;4970922;28;20027;-81
2024/01/31 06:00:49;;;;;;;3.13;0.63;;;5.90;99.90;;;;;;4968509;29;20428;-81
2024/01/31 06:03:15;;;;;;;4.30;0.60;;;5.90;99.90;;;;;;4969554;29;20023;-82
2024/01/31 06:05:42;;;;;;;2.72;1.08;;;6.00;99.90;;;;;;4967604;28;20515;-81
2024/01/31 06:08:07;;;;;;;1.08;0.28;;;6.00;99.90;;;;;;4965884;28;20217;-79
2024/01/31 06:10:33;;;;;;;0.68;0.20;;;6.00;99.90;;;;;;4967547;28;20058;-82
2024/01/31 06:12:59;;;;;;;1.27;0.30;;;7.40;99.90;;;;;;4964183;28;20038;-80
2024/01/31 06:15:25;;;;;;;0.77;0.10;;;;;;;;;;4965447;28;20031;-81
2024/01/31 06:17:51;;;;;;;4.85;0.50;;;6.00;99.90;;;;;;4966974;28;20027;-81
2024/01/31 06:20:17;;;;;;;2.00;0.38;;;6.10;99.90;;;;;;4968139;28;20034;-82
2024/01/31 06:22:43;;;;;;;3.90;0.52;;;;;;;;;;4968904;28;20031;-80
2024/01/31 06:25:09;;;;;;;3.55;0.40;;;6.00;99.90;;;;;;4967515;28;20112;-80
2024/01/31 06:27:37;;;;;;;1.63;0.60;;;5.90;99.90;;;;;;4968742;28;20023;-81
2024/01/31 06:30:04;;;;;;;2.70;0.70;;;5.90;99.90;;;;;;4965606;28;20027;-80
2024/01/31 06:32:33;;;;;;;2.67;1.00;;;6.00;99.90;;;;;;4964760;28;20022;-77
2024/01/31 06:34:59;;;;;;;3.88;1.20;;;6.00;99.90;;;;;;4958929;28;20047;-78
2024/01/31 06:37:26;;;;;;;5.95;1.33;;;6.00;99.90;;;;;;4959935;28;20031;-78
2024/01/31 06:39:52;;;;;;;4.28;1.67;;;6.10;99.90;;;;;;4959114;28;20110;-78
2024/01/31 06:42:18;;;;;;;5.43;1.80;;;;;;;;;;4960078;28;20063;-79
2024/01/31 06:44:43;;;;;;;7.45;2.63;;;6.00;99.90;;;;;;4959963;28;20038;-78
2024/01/31 06:47:09;;;;;;;5.18;1.98;;;6.00;99.90;;;;;;4957244;29;20494;-78
2024/01/31 06:49:34;;;;;;;6.00;2.00;;;6.00;99.90;;;;;;4956936;28;20059;-78
2024/01/31 06:52:00;;;;;;;4.28;2.08;;;6.00;99.90;;;;;;4959018;28;20027;-78
2024/01/31 06:54:26;;;;;;;9.20;1.50;;;6.00;99.90;;;;;;4959598;28;20038;-79
2024/01/31 06:56:52;;;;;;;6.82;2.03;;;6.00;99.90;;;;;;4957616;29;20046;-79
2024/01/31 06:59:17;;;;;;;4.60;1.92;;;6.00;99.90;;;;;;4957781;28;20460;-78
2024/01/31 07:01:43;;;;;;;13.27;3.40;;;6.00;99.90;;;;;;4957327;28;20480;-78
2024/01/31 07:04:09;;;;;;;7.78;2.83;;;6.00;99.90;;;;;;4959248;28;20034;-78
2024/01/31 07:06:36;;;;;;;8.30;2.65;;;6.00;99.90;;;;;;4946718;29;20047;-78
2024/01/31 07:09:02;;;;;;;8.85;2.65;;;6.00;99.90;;;;;;4961724;29;20038;-78
2024/01/31 07:11:27;;;;;;;8.25;2.67;;;6.00;99.90;;;;;;4960836;29;20107;-79
2024/01/31 07:13:53;;;;;;;9.38;2.80;;;6.00;99.90;;;;;;4961216;28;20105;-78
2024/01/31 07:16:19;;;;;;;6.18;2.92;;;6.00;99.90;;;;;;4962384;28;20438;-78
2024/01/31 07:18:45;;;;;;;9.57;2.88;;;6.00;99.90;;;;;;4963267;28;20022;-79
2024/01/31 07:21:11;;;;;;;6.25;2.60;;;6.00;99.90;;;;;;4961197;28;20090;-78
2024/01/31 07:23:37;;;;;;;6.38;2.88;;;6.10;99.90;;;;;;4959402;28;20444;-78
2024/01/31 07:26:03;;;;;;;6.63;2.40;;;6.10;99.90;;;;;;4961691;28;20034;-78
2024/01/31 07:28:38;;;;;;;5.28;2.78;;;6.20;99.90;;;;;;4960428;28;20023;-78
2024/01/31 07:31:06;;;;;;;5.53;2.13;;;6.10;99.90;;;;;;4961609;28;20032;-79
2024/01/31 07:33:33;;;;;;;5.68;2.45;;;6.10;99.90;;;;;;4961845;28;20026;-79
2024/01/31 07:35:59;;;;;;;4.35;2.08;;;6.10;99.90;;;;;;4961282;28;20027;-79
2024/01/31 07:38:24;;;;;;;3.92;2.47;;;6.10;99.90;;;;;;4962126;29;20019;-78
2024/01/31 07:40:50;;;;;;;6.75;2.53;;;6.10;99.90;;;;;;4961314;29;20023;-79
2024/01/31 07:43:15;;;;;;;6.53;2.05;;;6.40;99.90;;;;;;4962025;28;20015;-78
2024/01/31 07:45:41;;;;;;;6.25;1.73;;;6.20;99.90;;;;;;4961122;29;20024;-78
2024/01/31 07:48:07;;;;;;;4.47;1.95;;;6.20;99.90;;;;;;4959528;28;20550;-79
2024/01/31 07:50:32;;;;;;;4.78;1.33;;;6.10;99.90;;;;;;4962003;28;20150;-80
2024/01/31 07:52:58;;;;;;;3.40;1.65;;;6.10;99.90;;;;;;4962036;29;20035;-78
2024/01/31 07:55:24;;;;;;;5.90;1.85;;;6.10;99.90;;;;;;4960108;29;20027;-78
2024/01/31 07:57:49;;;;;;;4.63;1.38;;;6.10;99.90;;;;;;4961432;28;20031;-78
2024/01/31 08:00:18;;;;;;;2.90;1.17;;;6.20;99.90;;;;;;4959958;28;20050;-78
2024/01/31 08:02:44;;;;;;;3.33;1.42;;;6.20;99.90;;;;;;4961019;28;20023;-80
2024/01/31 08:05:09;;;;;;;7.13;1.98;;;6.20;99.90;;;;;;4962674;28;20071;-80
2024/01/31 08:07:35;;;;;;;7.30;1.40;;;6.20;99.90;;;;;;4960928;28;20031;-80
2024/01/31 08:10:01;;;;;;;5.30;1.48;;;6.20;99.90;;;;;;4963513;28;20106;-81
2024/01/31 08:12:27;;;;;;;2.50;1.10;;;6.40;99.90;;;;;;4962508;28;20040;-79
2024/01/31 08:14:52;;;;;;;4.45;1.00;;;6.30;99.90;;;;;;4962525;28;20058;-79
2024/01/31 08:17:18;;;;;;;2.88;0.85;;;6.30;99.90;;;;;;4961841;28;20035;-81
2024/01/31 08:19:43;;;;;;;4.57;0.88;;;6.30;99.90;;;;;;4964092;28;20027;-81
2024/01/31 08:22:09;;;;;;;5.72;1.88;;;6.30;99.90;;;;;;4964480;28;20082;-80
2024/01/31 08:24:37;;;;;;;1.13;0.70;;;6.20;99.90;;;;;;4962613;28;20061;-82
2024/01/31 08:27:03;;;;;;;1.23;0.65;;;6.20;99.90;;;;;;4963431;28;20035;-83
2024/01/31 08:29:28;;;;;;;3.05;0.80;;;6.20;99.90;;;;;;4963609;29;20062;-79
2024/01/31 08:31:54;;;;;;;2.17;0.90;;;6.20;99.90;;;;;;4963835;28;20030;-80
2024/01/31 08:34:20;;;;;;;4.32;0.75;;;6.30;99.90;;;;;;4961877;28;20031;-78
2024/01/31 08:36:45;;;;;;;3.65;0.73;;;6.30;99.90;;;;;;4965178;28;20043;-79
2024/01/31 08:39:11;;;;;;;4.25;0.40;;;6.30;99.90;;;;;;4962485;28;20028;-79
2024/01/31 08:41:37;;;;;;;1.98;0.35;;;6.40;99.90;;;;;;4966110;28;20024;-79
2024/01/31 08:44:03;;;;;;;1.50;0.70;;;6.40;99.90;;;;;;4964105;28;20089;-79
2024/01/31 08:46:29;;;;;;;0.95;0.40;;;6.50;99.90;;;;;;4965315;28;20407;-80
2024/01/31 08:48:54;;;;;;;1.70;0.50;;;6.50;99.90;;;;;;4967704;28;20082;-80
2024/01/31 08:51:20;;;;;;;1.33;0.30;;;7.70;99.90;;;;;;4965087;28;20031;-79
2024/01/31 08:53:46;;;;;;;1.65;0.73;;;6.50;99.90;;;;;;4966091;29;20557;-79
2024/01/31 08:56:11;;;;;;;1.13;0.40;;;6.60;99.90;;;;;;4965465;29;20035;-81
2024/01/31 08:58:38;;;;;;;1.05;0.40;;;6.60;99.90;;;;;;4963967;28;20019;-79
2024/01/31 09:01:04;;;;;;;0.77;0.38;;;7.50;99.90;;;;;;4963516;29;20023;-80
2024/01/31 09:03:30;;;;;;;2.88;0.45;;;6.70;99.90;;;;;;4961835;28;20042;-82
2024/01/31 09:05:56;;;;;;;1.05;0.40;;;6.80;99.90;;;;;;4961958;28;20031;-82
2024/01/31 09:08:22;;;;;;;2.58;0.65;;;6.80;99.90;;;;;;4962483;28;20016;-82
2024/01/31 09:10:48;;;;;;;0.68;0.10;;;6.80;99.90;;;;;;4961439;28;20038;-82
2024/01/31 09:13:13;;;;;;;4.40;0.70;;;6.80;99.90;;;;;;4962746;28;20031;-82
2024/01/31 09:15:39;;;;;;;4.68;0.93;;;6.90;99.90;;;;;;4962386;28;20031;-82
2024/01/31 09:18:05;;;;;;;2.40;0.60;;;7.40;99.90;;;;;;4961308;29;20031;-82
2024/01/31 09:20:31;;;;;;;4.32;0.70;;;;;;;;;;4962312;28;20023;-82
2024/01/31 09:22:57;;;;;;;3.28;0.52;;;7.00;99.90;;;;;;4960296;28;20034;-82
2024/01/31 09:25:23;;;;;;;2.15;0.88;;;7.00;99.90;;;;;;4962633;28;20023;-81
2024/01/31 09:27:48;;;;;;;2.78;1.17;;;7.00;99.90;;;;;;4964572;28;20102;-81
2024/01/31 09:30:14;;;;;;;4.32;2.15;;;7.10;99.90;;;;;;4965778;28;20016;-82
2024/01/31 09:32:39;;;;;;;4.43;0.95;;;7.10;99.90;;;;;;4965633;28;20015;-82
2024/01/31 09:35:06;;;;;;;5.32;1.65;;;7.10;99.90;;;;;;4965792;28;20030;-81
2024/01/31 09:37:32;;;;;;;2.65;1.33;;;7.20;99.90;;;;;;4965752;28;20151;-82
2024/01/31 09:40:01;;;;;;;2.97;1.10;;;8.50;99.90;;;;;;4965912;28;20459;-78
2024/01/31 09:42:27;;;;;;;4.10;0.93;;;7.20;99.90;;;;;;4965309;28;20027;-78
2024/01/31 09:44:55;;;;;;;3.90;1.95;;;7.20;99.90;;;;;;4966566;28;20062;-78
2024/01/31 09:47:30;;;;;;;5.32;1.38;;;7.20;99.90;;;;;;4967582;28;20019;-79
2024/01/31 09:49:56;;;;;;;6.45;1.58;;;7.20;99.90;;;;;;4966342;28;20023;-79
2024/01/31 09:52:29;;;;;;;3.28;1.67;;;7.20;99.90;;;;;;4967125;28;20106;-80
2024/01/31 09:54:58;;;;;;;3.95;1.38;;;7.20;99.90;;;;;;4966335;28;20024;-80
2024/01/31 09:57:27;;;;;;;5.50;2.03;;;7.20;99.90;;;;;;4967483;28;20146;-80
2024/01/31 09:59:56;;;;;;;5.03;1.90;;;7.20;99.90;;;;;;4967514;28;20027;-80
2024/01/31 10:02:22;;;;;;;3.67;1.88;;;7.20;99.90;;;;;;4967769;28;20047;-80
2024/01/31 10:04:51;;;;;;;7.63;1.77;;;7.20;99.90;;;;;;4967289;28;20031;-78
2024/01/31 10:07:24;;;;;;;5.95;2.03;;;7.10;99.90;;;;;;4966430;28;20369;-78
2024/01/31 10:09:54;;;;;;;9.98;2.40;;;7.20;99.90;;;;;;4967199;28;20031;-80
2024/01/31 10:12:20;;;;;;;6.15;2.10;;;7.20;99.90;;;;;;4966064;28;20502;-80
2024/01/31 10:14:53;;;;;;;4.13;1.50;;;7.20;99.90;;;;;;4966957;29;20387;-78
2024/01/31 10:17:22;;;;;;;4.88;1.55;;;7.20;99.90;;;;;;4966251;28;20082;-78
2024/01/31 10:19:51;;;;;;;6.55;1.38;;;7.20;99.90;;;;;;4967582;28;20034;-79
2024/01/31 10:22:18;;;;;;;4.90;1.98;;;8.10;99.90;;;;;;4965508;28;20047;-78
2024/01/31 10:24:50;;;;;;;6.82;1.98;;;7.20;99.90;;;;;;4966946;28;20078;-79
2024/01/31 10:27:20;;;;;;;7.15;2.05;;;7.20;99.90;;;;;;4966063;28;20032;-79
2024/01/31 10:29:45;;;;;;;4.45;1.30;;;7.20;99.90;;;;;;4967477;28;20070;-80
2024/01/31 10:32:15;;;;;;;8.02;1.75;;;7.20;99.90;;;;;;4969103;28;20023;-80
2024/01/31 10:34:42;;;;;;;10.35;2.42;;;7.30;99.90;;;;;;4970660;28;20094;-81
2024/01/31 10:37:09;;;;;;;9.60;1.75;;;7.30;99.90;;;;;;4969256;28;20031;-81
2024/01/31 10:39:36;;;;;;;4.85;1.85;;;7.90;99.90;;;;;;4967452;28;20099;-81
2024/01/31 10:42:04;;;;;;;6.13;1.63;;;7.30;99.90;;;;;;4969843;28;20051;-81
2024/01/31 10:44:31;;;;;;;6.15;2.15;;;7.30;99.90;;;;;;4969528;28;20038;-82
2024/01/31 10:46:57;;;;;;;9.38;2.45;;;7.40;99.90;;;;;;4970978;28;20030;-82
2024/01/31 10:49:23;;;;;;;4.88;1.33;;;8.40;99.90;;;;;;4970850;28;20035;-82
2024/01/31 10:51:51;;;;;;;6.93;2.15;;;7.40;99.90;;;;;;4971377;28;20353;-81
2024/01/31 10:54:21;;;;;;;5.50;2.17;;;7.50;99.90;;;;;;4968631;29;20027;-81
2024/01/31 10:56:48;;;;;;;6.25;2.20;;;7.50;99.90;;;;;;4968116;28;20027;-82
2024/01/31 10:59:13;;;;;;;12.10;3.40;;;7.50;99.90;;;;;;4968842;28;20024;-82
2024/01/31 11:01:56;;;;;;;9.32;3.53;;;7.50;99.90;;;;;;4968484;28;20041;-81
2024/01/31 11:04:22;;;;;;;6.38;2.38;;;7.50;99.90;;;;;;4969590;28;20027;-80
2024/01/31 11:06:51;;;;;;;11.45;5.15;;;7.50;99.90;;;;;;4961847;29;20094;-80
2024/01/31 11:09:25;;;;;;;15.00;4.72;;;7.50;99.90;;;;;;4962131;28;20023;-79
2024/01/31 11:12:04;;;;;;;13.23;4.57;;;7.50;99.90;;;;;;4961065;29;20063;-79
2024/01/31 11:14:30;;;;;;;17.45;4.35;;;7.50;99.90;;;;;;4957462;28;20067;-79
2024/01/31 11:17:06;;;;;;;11.68;3.72;;;7.50;99.90;;;;;;4955592;28;20028;-79
2024/01/31 11:19:38;;;;;;;14.30;3.70;;;7.60;99.90;;;;;;4958702;28;20390;-78
2024/01/31 11:22:06;;;;;;;11.05;4.13;;;7.60;99.90;;;;;;4956986;28;20491;-80
2024/01/31 11:24:33;;;;;;;16.65;5.18;;;7.60;99.90;;;;;;4958958;28;20027;-80
2024/01/31 11:27:00;;;;;;;14.23;5.78;;;7.60;99.90;;;;;;4958942;28;20059;-79
2024/01/31 11:29:25;;;;;;;16.98;6.03;;;7.60;99.90;;;;;;4959416;28;20019;-79
2024/01/31 11:31:52;;;;;;;15.63;5.35;;;7.60;99.90;;;;;;4957026;28;20431;-79
2024/01/31 11:34:22;;;;;;;19.10;5.63;;;7.60;99.90;;;;;;4955572;28;20135;-79
2024/01/31 11:36:48;;;;;;;16.67;5.80;;;7.60;99.90;;;;;;4956102;28;20043;-79
2024/01/31 11:39:15;;;;;;;15.73;5.75;;;7.60;99.90;;;;;;4959719;28;20038;-80
2024/01/31 11:41:41;;;;;;;14.05;5.70;;;10.00;99.90;;;;;;4958722;28;20019;-80
2024/01/31 11:44:06;;;;;;;15.90;6.05;;;7.60;99.90;;;;;;4960851;28;20057;-80
2024/01/31 11:46:32;;;;;;;18.67;7.07;;;7.60;99.90;;;;;;4962187;28;20027;-79
2024/01/31 11:48:57;;;;;;;17.42;5.40;;;7.60;99.90;;;;;;4959542;29;20432;-80
2024/01/31 11:51:23;;;;;;;15.30;5.70;;;7.60;99.90;;;;;;4957554;28;20027;-79
2024/01/31 11:53:49;;;;;;;15.32;5.20;;;7.70;99.90;;;;;;4956335;28;20016;-79
2024/01/31 11:56:14;;;;;;;14.77;5.20;;;7.60;99.90;;;;;;4958798;28;20023;-80
2024/01/31 11:58:40;;;;;;;17.08;5.82;;;7.60;99.90;;;;;;4960064;28;20074;-79
2024/01/31 12:01:06;;;;;;;13.88;5.55;;;7.60;99.90;;;;;;4959402;28;20487;-79
2024/01/31 12:03:33;;;;;;;14.80;5.88;;;7.60;99.90;;;;;;4959513;28;20106;-79
2024/01/31 12:05:59;;;;;;;14.43;6.30;;;7.70;99.90;;;;;;4956990;28;20573;-79
2024/01/31 12:08:27;;;;;;;17.45;5.97;;;7.60;99.90;;;;;;4956270;28;20051;-78
2024/01/31 12:10:54;;;;;;;15.63;6.40;;;7.70;99.90;;;;;;4956803;28;20024;-79
2024/01/31 12:13:20;;;;;;;18.73;5.93;;;7.70;99.90;;;;;;4919736;28;1082826;-79
2024/01/31 12:15:47;;;;;;;17.77;6.35;;;7.70;99.90;;;;;;4957891;28;20020;-79
2024/01/31 12:18:14;;;;;;;17.42;6.45;;;7.70;99.90;;;;;;4957007;28;20031;-79
2024/01/31 12:20:40;;;;;;;18.02;6.10;;;7.70;99.90;;;;;;4957937;28;20023;-79
2024/01/31 12:23:06;;;;;;;15.95;6.40;;;7.70;99.90;;;;;;4957332;28;20480;-79
2024/01/31 12:25:32;;;;;;;14.15;5.97;;;7.70;99.90;;;;;;4958847;28;20078;-79
2024/01/31 12:27:57;;;;;;;17.25;6.70;;;7.60;99.90;;;;;;4958800;28;20027;-80
2024/01/31 12:30:23;;;;;;;13.38;5.72;;;7.60;99.90;;;;;;4959204;28;20039;-80
2024/01/31 12:32:49;;;;;;;14.05;5.40;;;7.50;99.90;;;;;;4961031;28;20050;-79
2024/01/31 12:35:15;;;;;;;8.38;4.32;;;7.60;99.90;;;;;;4956988;28;20054;-79
2024/01/31 12:37:41;;;;;;;12.07;4.80;;;7.50;99.90;;;;;;4958025;28;20028;-78
2024/01/31 12:40:07;;;;;;;11.63;5.25;;;7.50;99.90;;;;;;4958137;29;20027;-79
2024/01/31 12:42:33;;;;;;;10.88;4.80;;;7.50;99.90;;;;;;4960315;28;20027;-79
2024/01/31 12:44:58;;;;;;;15.38;5.57;;;7.50;99.90;;;;;;4957882;28;20452;-79
2024/01/31 12:47:25;;;;;;;11.05;5.75;;;7.50;99.90;;;;;;4957950;29;20032;-79
2024/01/31 12:49:51;;;;;;;11.27;5.47;;;7.50;99.90;;;;;;4957093;28;20047;-79
2024/01/31 12:52:21;;;;;;;9.60;5.65;;;7.50;99.90;;;;;;4957389;28;20427;-79
2024/01/31 12:54:47;;;;;;;17.65;5.85;;;7.50;99.90;;;;;;4956615;29;20114;-79
2024/01/31 12:57:13;;;;;;;11.40;5.78;;;7.50;99.90;;;;;;4959388;28;20077;-79